SBUL/UDI METAR and TAF weather

Enter ICAO airport designator
Station Type Date Time Source
SBUL METAR 2021/05/11 16:00 UTC NOAA

SBUL 111600Z 07007KT 050V120 9999 FEW030 25/10 Q1020


Station Type Date Time Source
SBUL Decoded METAR 2021/05/11 16:00 UTC NOAA

Uberlandia , Brazil (SBUL) 18-53S 048-14W
May 11, 2021 - 12:00 PM EDT / 2021.05.11 1600 UTC
Wind: from the ENE (070 degrees) at 8 MPH (7 KT) (direction variable):0
Visibility: greater than 7 mile(s):0
Sky conditions: mostly clear
Temperature: 77 F (25 C)
Dew Point: 50 F (10 C)
Relative Humidity: 38%
Pressure (altimeter): 30.12 in. Hg (1020 hPa)
ob: SBUL 111600Z 07007KT 050V120 9999 FEW030 25/10 Q1020
cycle: 16

Station Type Date Time Source
SBUL TAF 2021/05/11 12:27 UTC NOAA

TAF SBUL 110900Z 1112/1124 04010KT CAVOK TN20/1112Z TX25/1118Z
BECMG 1114/1116 00000KT FEW045
BECMG 1117/1119 27002KT
BECMG 1120/1122 06004KT CAVOK
RMK PGE

Example: see airport list